Yantisville, Illinois
Current Conditions -  °F | °C
As of 9:54 PM on Thursday 27 Nov 2014 (Local Time) from KDEC Reporting Station
Clear Clear  
Wind Chill: 13°   Ceiling: Unl
Heat Index: 13°   Visibility: 10mi
Dew Point:   Wind: 0mph
Humidity: 71%   Direction: NA
Pressure: 30.43"   Gusts: NA
Location:  39.5113°N, 88.7629°W
Report Text: KDEC 280354Z 00000KT 10SM CLR M11/M15 A3043 RMK AO2 SLP314 T11061150
Loading
Personal Weather Stations






























Interactive Weather Map New forecast layout! Learn more

10-Day Weather Forecast

Advertisements
Track Severe Weather on mobile